createdAt,value
2017-11-16T00:02:20.288Z,27.10
2017-11-16T00:04:47.667Z,26.47
2017-11-16T00:07:15.183Z,29.07
2017-11-16T00:09:42.628Z,28.53
2017-11-16T00:12:10.032Z,26.80
2017-11-16T00:14:37.443Z,27.87
2017-11-16T00:17:04.849Z,26.13
2017-11-16T00:19:32.239Z,27.67
2017-11-16T00:21:59.657Z,27.67
2017-11-16T00:24:27.040Z,26.90
2017-11-16T00:26:54.530Z,26.50
2017-11-16T00:29:21.983Z,27.50
2017-11-16T00:31:49.434Z,26.63
2017-11-16T00:34:16.837Z,28.93
2017-11-16T00:36:44.234Z,29.93
2017-11-16T00:39:11.637Z,30.37
2017-11-16T00:41:39.027Z,32.47
2017-11-16T00:44:06.512Z,31.97
2017-11-16T00:46:33.980Z,31.03
2017-11-16T00:49:01.383Z,32.83
2017-11-16T00:51:28.775Z,32.27
2017-11-16T00:53:56.170Z,32.67
2017-11-16T00:56:23.566Z,31.40
2017-11-16T00:58:50.967Z,35.80
2017-11-16T01:01:18.410Z,32.03
2017-11-16T01:03:45.867Z,34.33
2017-11-16T01:06:13.324Z,31.97
2017-11-16T01:08:40.723Z,31.83
2017-11-16T01:11:08.236Z,31.80
2017-11-16T01:13:35.634Z,31.77
2017-11-16T01:16:03.044Z,29.77
2017-11-16T01:18:30.503Z,33.13
2017-11-16T01:20:57.960Z,32.47
2017-11-16T01:23:25.353Z,31.00
2017-11-16T01:25:52.776Z,30.20
2017-11-16T01:28:20.171Z,31.67
2017-11-16T01:30:47.568Z,32.07
2017-11-16T01:33:14.972Z,30.23
2017-11-16T01:35:42.373Z,28.90
2017-11-16T01:38:09.843Z,30.40
2017-11-16T01:40:37.231Z,30.50
2017-11-16T01:43:04.651Z,29.33
2017-11-16T01:45:32.051Z,30.07
2017-11-16T01:47:59.470Z,31.43
2017-11-16T01:50:26.871Z,30.20
2017-11-16T01:52:54.375Z,31.67
2017-11-16T01:55:21.782Z,29.80
2017-11-16T01:57:49.171Z,30.93
2017-11-16T02:00:16.579Z,29.47
2017-11-16T02:02:43.995Z,29.50
2017-11-16T02:05:11.397Z,27.73
2017-11-16T02:07:38.796Z,29.50
2017-11-16T02:10:06.195Z,29.37
2017-11-16T02:12:33.624Z,28.47
2017-11-16T02:15:01.079Z,27.27
2017-11-16T02:17:28.475Z,28.70
2017-11-16T02:19:55.913Z,28.10
2017-11-16T02:22:23.345Z,28.63
2017-11-16T02:24:50.806Z,29.37
2017-11-16T02:27:18.212Z,27.13
2017-11-16T02:29:45.608Z,25.70
2017-11-16T02:32:13.002Z,25.47
2017-11-16T02:34:40.440Z,25.13
2017-11-16T02:37:07.889Z,27.47
2017-11-16T02:39:35.284Z,26.77
2017-11-16T02:42:02.786Z,26.30
2017-11-16T02:44:30.189Z,25.73
2017-11-16T02:46:57.583Z,25.60
2017-11-16T02:49:24.979Z,26.50
2017-11-16T02:51:52.410Z,27.33
2017-11-16T02:54:19.799Z,27.97
2017-11-16T02:56:47.223Z,27.00
2017-11-16T02:59:14.611Z,26.20
2017-11-16T03:01:42.036Z,25.13
2017-11-16T03:04:09.492Z,24.80
2017-11-16T03:06:36.948Z,25.17
2017-11-16T03:09:04.401Z,24.00
2017-11-16T03:11:31.806Z,24.70
2017-11-16T03:13:59.202Z,24.37
2017-11-16T03:16:26.678Z,22.90
2017-11-16T03:18:54.067Z,22.43
2017-11-16T03:21:21.472Z,21.73
2017-11-16T03:23:48.953Z,22.73
2017-11-16T03:26:16.390Z,21.97
2017-11-16T03:28:43.846Z,22.83
2017-11-16T03:31:11.309Z,22.10
2017-11-16T03:33:38.763Z,20.57
2017-11-16T03:36:06.163Z,21.77
2017-11-16T03:38:33.572Z,20.90
2017-11-16T03:41:01.029Z,20.27
2017-11-16T03:43:28.424Z,22.03
2017-11-16T03:45:55.846Z,20.10
2017-11-16T03:48:23.240Z,20.37
2017-11-16T03:50:50.664Z,20.03
2017-11-16T03:53:18.115Z,19.90
2017-11-16T03:55:45.519Z,19.90
2017-11-16T03:58:12.920Z,20.10
2017-11-16T04:00:40.319Z,20.37
2017-11-16T04:03:07.741Z,19.00
2017-11-16T04:05:35.150Z,21.53
2017-11-16T04:08:02.551Z,21.50
2017-11-16T04:10:30.008Z,20.73
2017-11-16T04:15:30.413Z,20.03
2017-11-16T04:17:57.803Z,20.60
2017-11-16T04:20:25.207Z,20.80
2017-11-16T04:22:52.715Z,19.40
2017-11-16T04:25:20.122Z,18.13
2017-11-16T04:27:55.351Z,19.47
2017-11-16T04:30:22.751Z,20.15
2017-11-16T04:32:50.148Z,19.60
2017-11-16T04:35:17.543Z,17.83
2017-11-16T04:37:44.945Z,19.17
2017-11-16T04:40:12.340Z,18.40
2017-11-16T04:42:39.735Z,19.03
2017-11-16T04:45:07.208Z,18.13
2017-11-16T04:47:34.620Z,17.97
2017-11-16T04:50:02.115Z,19.63
2017-11-16T04:52:29.582Z,19.87
2017-11-16T04:54:57.103Z,18.67
2017-11-16T04:57:24.493Z,18.27
2017-11-16T04:59:51.888Z,17.53
2017-11-16T05:02:19.300Z,18.60
2017-11-16T05:04:46.751Z,17.80
2017-11-16T05:07:14.166Z,17.70
2017-11-16T05:09:41.550Z,18.57
2017-11-16T05:12:09.027Z,18.20
2017-11-16T05:14:36.484Z,19.30
2017-11-16T05:17:03.892Z,18.57
2017-11-16T05:19:31.301Z,19.60
2017-11-16T05:21:58.692Z,19.40
2017-11-16T05:24:26.096Z,19.30
2017-11-16T05:26:53.488Z,18.83
2017-11-16T05:29:20.888Z,18.53
2017-11-16T05:31:48.381Z,19.70
2017-11-16T05:34:15.784Z,18.00
2017-11-16T05:36:43.182Z,17.80
2017-11-16T05:39:10.632Z,18.30
2017-11-16T05:41:38.100Z,20.03
2017-11-16T05:44:05.549Z,18.10
2017-11-16T05:46:33.004Z,17.57
2017-11-16T05:49:00.404Z,19.80
2017-11-16T05:51:27.804Z,19.00
2017-11-16T05:53:55.204Z,19.50
2017-11-16T05:56:22.595Z,17.87
2017-11-16T05:58:50.091Z,18.03
2017-11-16T06:01:17.492Z,17.90
2017-11-16T06:03:44.896Z,17.43
2017-11-16T06:06:12.309Z,17.70
2017-11-16T06:08:39.812Z,18.50
2017-11-16T06:11:07.197Z,19.60
2017-11-16T06:13:34.633Z,20.00
2017-11-16T06:16:02.048Z,18.87
2017-11-16T06:18:29.428Z,18.80
2017-11-16T06:20:56.828Z,18.90
2017-11-16T06:23:24.221Z,18.03
2017-11-16T06:25:51.653Z,17.67
2017-11-16T06:28:19.039Z,18.97
2017-11-16T06:30:46.442Z,18.97
2017-11-16T06:33:13.866Z,18.20
2017-11-16T06:35:41.260Z,18.07
2017-11-16T06:38:08.675Z,17.77
2017-11-16T06:40:36.136Z,19.50
2017-11-16T06:43:03.519Z,20.83
2017-11-16T06:45:30.928Z,18.30
2017-11-16T06:47:58.391Z,19.90
2017-11-16T06:50:25.808Z,19.40
2017-11-16T06:52:53.304Z,18.80
2017-11-16T06:55:20.783Z,19.30
2017-11-16T06:57:48.172Z,19.07
2017-11-16T07:00:15.572Z,20.03
2017-11-16T07:02:42.956Z,21.40
2017-11-16T07:05:10.356Z,21.10
2017-11-16T07:07:37.844Z,21.33
2017-11-16T07:10:05.248Z,19.80
2017-11-16T07:12:32.650Z,18.57
2017-11-16T07:15:00.044Z,19.60
2017-11-16T07:17:27.443Z,21.00
2017-11-16T07:19:54.928Z,19.63
2017-11-16T07:22:22.323Z,20.13
2017-11-16T07:24:49.735Z,19.87
2017-11-16T07:27:17.120Z,18.23
2017-11-16T07:29:44.519Z,18.73
2017-11-16T07:32:11.919Z,19.27
2017-11-16T07:34:39.325Z,17.37
2017-11-16T07:37:06.711Z,19.20
2017-11-16T07:39:34.107Z,16.60
2017-11-16T07:42:01.504Z,17.93
2017-11-16T07:44:28.979Z,16.57
2017-11-16T07:46:56.371Z,17.77
2017-11-16T07:49:23.776Z,16.43
2017-11-16T07:51:51.164Z,19.07
2017-11-16T07:54:18.565Z,16.90
2017-11-16T07:56:45.981Z,17.00
2017-11-16T07:59:13.382Z,16.67
2017-11-16T08:01:40.879Z,16.33
2017-11-16T08:04:08.290Z,16.00
2017-11-16T08:06:35.775Z,16.10
2017-11-16T08:09:03.179Z,17.00
2017-11-16T08:11:30.583Z,16.60
2017-11-16T08:13:58.049Z,17.13
2017-11-16T08:16:25.507Z,16.83
2017-11-16T08:18:52.890Z,15.80
2017-11-16T08:21:20.294Z,17.20
2017-11-16T08:23:47.688Z,15.57
2017-11-16T08:26:15.092Z,13.90
2017-11-16T08:28:42.484Z,14.90
2017-11-16T08:31:09.894Z,15.33
2017-11-16T08:33:37.400Z,15.27
2017-11-16T08:36:04.803Z,15.27
2017-11-16T08:38:32.205Z,14.37
2017-11-16T08:40:59.612Z,14.70
2017-11-16T08:43:27.004Z,15.17
2017-11-16T08:45:54.404Z,15.90
2017-11-16T08:48:21.830Z,14.17
2017-11-16T08:50:49.220Z,16.17
2017-11-16T08:53:16.641Z,14.07
2017-11-16T08:55:44.031Z,14.70
2017-11-16T08:58:11.428Z,15.90
2017-11-16T09:00:38.908Z,15.98
2017-11-16T09:03:06.304Z,15.47
2017-11-16T09:05:33.713Z,14.40
2017-11-16T09:08:01.099Z,17.37
2017-11-16T09:10:28.503Z,14.77
2017-11-16T09:12:55.980Z,16.20
2017-11-16T09:15:23.398Z,15.50
2017-11-16T09:17:50.791Z,15.27
2017-11-16T09:20:18.215Z,15.17
2017-11-16T09:22:45.600Z,14.70
2017-11-16T09:25:13.041Z,15.33
2017-11-16T09:27:40.429Z,16.00
2017-11-16T09:30:07.838Z,17.53
2017-11-16T09:32:35.324Z,15.27
2017-11-16T09:35:02.737Z,14.43
2017-11-16T09:37:30.132Z,13.37
2017-11-16T09:39:57.529Z,14.90
2017-11-16T09:42:24.944Z,15.50
2017-11-16T09:44:52.339Z,14.93
2017-11-16T09:47:19.760Z,14.40
2017-11-16T09:49:47.155Z,15.20
2017-11-16T09:52:14.556Z,14.97
2017-11-16T09:54:41.948Z,15.17
2017-11-16T09:57:09.379Z,15.13
2017-11-16T09:59:36.776Z,15.23
2017-11-16T10:02:04.176Z,14.97
2017-11-16T10:04:31.572Z,14.77
2017-11-16T10:06:58.977Z,13.73
2017-11-16T10:09:26.388Z,16.17
2017-11-16T10:11:53.776Z,17.63
2017-11-16T10:14:21.174Z,14.70
2017-11-16T10:16:48.575Z,15.30
2017-11-16T10:19:15.976Z,14.67
2017-11-16T10:21:43.386Z,14.83
2017-11-16T10:24:10.788Z,15.90
2017-11-16T10:26:38.189Z,14.77
2017-11-16T10:29:05.580Z,15.87
2017-11-16T10:31:33.000Z,14.40
2017-11-16T10:34:00.412Z,14.50
2017-11-16T10:36:27.807Z,14.57
2017-11-16T10:38:55.204Z,13.90
2017-11-16T10:41:22.616Z,15.20
2017-11-16T10:43:50.012Z,14.30
2017-11-16T10:46:17.487Z,13.80
2017-11-16T10:48:44.902Z,14.57
2017-11-16T10:51:12.296Z,13.50
2017-11-16T10:53:39.696Z,13.17
2017-11-16T10:56:07.092Z,13.80
2017-11-16T10:58:34.492Z,13.50
2017-11-16T11:01:01.888Z,14.87
2017-11-16T11:03:29.300Z,14.13
2017-11-16T11:05:56.692Z,14.30
2017-11-16T11:08:24.087Z,14.63
2017-11-16T11:10:51.499Z,14.10
2017-11-16T11:13:18.952Z,14.67
2017-11-16T11:15:46.456Z,13.23
2017-11-16T11:18:13.876Z,16.47
2017-11-16T11:20:41.270Z,15.10
2017-11-16T11:23:08.703Z,14.17
2017-11-16T11:25:36.134Z,13.70
2017-11-16T11:28:03.573Z,14.50
2017-11-16T11:30:30.973Z,14.30
2017-11-16T11:32:58.380Z,15.20
2017-11-16T11:35:25.769Z,15.30
2017-11-16T11:37:53.171Z,15.23
2017-11-16T11:40:20.603Z,14.67
2017-11-16T11:42:48.008Z,14.53
2017-11-16T11:45:15.411Z,15.47
2017-11-16T11:47:42.815Z,14.10
2017-11-16T11:50:10.212Z,14.20
2017-11-16T11:52:37.695Z,14.20
2017-11-16T11:55:05.091Z,14.40
2017-11-16T11:57:32.600Z,13.83
2017-11-16T12:00:00.018Z,15.00
2017-11-16T12:02:27.407Z,14.63
2017-11-16T12:04:54.816Z,13.90
2017-11-16T12:07:22.208Z,14.10
2017-11-16T12:09:49.609Z,13.40
2017-11-16T12:12:17.027Z,15.07
2017-11-16T12:14:44.431Z,13.90
2017-11-16T12:17:11.820Z,13.33
2017-11-16T12:19:39.214Z,13.57
2017-11-16T12:22:06.616Z,13.83
2017-11-16T12:24:34.183Z,13.97
2017-11-16T12:27:01.652Z,11.97
2017-11-16T12:29:29.064Z,13.77
2017-11-16T12:31:56.476Z,14.50
2017-11-16T12:34:23.871Z,13.80
2017-11-16T12:36:51.274Z,13.57
2017-11-16T12:39:18.748Z,14.53
2017-11-16T12:41:46.139Z,13.73
2017-11-16T12:44:13.560Z,14.03
2017-11-16T12:46:41.030Z,15.37
2017-11-16T12:49:08.419Z,14.53
2017-11-16T12:51:35.827Z,14.40
2017-11-16T12:54:03.228Z,16.50
2017-11-16T12:56:30.628Z,15.13
2017-11-16T12:58:58.087Z,14.27
2017-11-16T13:01:25.552Z,14.13
2017-11-16T13:03:52.951Z,14.43
2017-11-16T13:06:20.367Z,13.70
2017-11-16T13:08:47.757Z,15.60
2017-11-16T13:11:15.160Z,14.17
2017-11-16T13:13:42.555Z,14.37
2017-11-16T13:16:09.951Z,13.83
2017-11-16T13:18:37.356Z,15.07
2017-11-16T13:21:04.802Z,13.90
2017-11-16T13:23:32.189Z,13.20
2017-11-16T13:25:59.600Z,14.90
2017-11-16T13:28:27.051Z,13.80
2017-11-16T13:30:54.503Z,13.23
2017-11-16T13:33:21.891Z,15.50
2017-11-16T13:35:49.299Z,14.03
2017-11-16T13:38:16.776Z,14.00
2017-11-16T13:40:44.176Z,14.13
2017-11-16T13:43:11.576Z,13.40
2017-11-16T13:45:39.052Z,13.30
2017-11-16T13:48:06.457Z,15.03
2017-11-16T13:50:33.853Z,13.80
2017-11-16T13:53:01.253Z,13.23
2017-11-16T13:55:28.658Z,14.70
2017-11-16T13:57:56.052Z,13.80
2017-11-16T14:00:23.448Z,14.47
2017-11-16T14:02:50.856Z,14.93
2017-11-16T14:05:18.276Z,14.97
2017-11-16T14:07:45.748Z,13.73
2017-11-16T14:10:13.204Z,14.00
2017-11-16T14:12:40.605Z,13.13
2017-11-16T14:15:08.022Z,14.07
2017-11-16T14:17:35.416Z,13.90
2017-11-16T14:20:02.812Z,14.13
2017-11-16T14:22:30.295Z,14.80
2017-11-16T14:24:57.676Z,14.17
2017-11-16T14:27:25.082Z,13.90
2017-11-16T14:29:52.495Z,14.50
2017-11-16T14:32:19.959Z,13.53
2017-11-16T14:34:47.357Z,14.60
2017-11-16T14:37:14.756Z,14.50
2017-11-16T14:39:42.152Z,13.80
2017-11-16T14:42:09.557Z,13.73
2017-11-16T14:44:36.948Z,12.60
2017-11-16T14:47:04.359Z,14.47
2017-11-16T14:49:31.739Z,13.27
2017-11-16T14:51:59.172Z,13.43
2017-11-16T14:54:26.570Z,15.43
2017-11-16T14:56:54.001Z,13.30
2017-11-16T14:59:21.403Z,14.30
2017-11-16T15:01:48.821Z,13.60
2017-11-16T15:04:16.215Z,13.90
2017-11-16T15:06:43.643Z,14.40
2017-11-16T15:09:11.108Z,15.20
2017-11-16T15:11:38.503Z,15.23
2017-11-16T15:14:05.900Z,15.37
2017-11-16T15:16:33.291Z,14.20
2017-11-16T15:19:00.696Z,17.93
2017-11-16T15:21:28.088Z,15.00
2017-11-16T15:23:55.493Z,17.40
2017-11-16T15:26:22.890Z,18.47
2017-11-16T15:28:50.294Z,16.07
2017-11-16T15:31:17.688Z,16.33
2017-11-16T15:33:45.105Z,18.20
2017-11-16T15:36:12.496Z,17.67
2017-11-16T15:38:39.957Z,17.50
2017-11-16T15:41:07.349Z,17.37
2017-11-16T15:43:34.785Z,18.43
2017-11-16T15:46:02.232Z,18.43
2017-11-16T15:48:29.664Z,19.13
2017-11-16T15:50:57.024Z,18.50
2017-11-16T15:53:24.493Z,16.43
2017-11-16T15:55:51.899Z,18.37
2017-11-16T15:58:19.285Z,18.60
2017-11-16T16:00:46.759Z,16.98
2017-11-16T16:03:14.148Z,18.00
2017-11-16T16:05:41.572Z,20.40
2017-11-16T16:08:08.980Z,18.67
2017-11-16T16:10:36.377Z,18.17
2017-11-16T16:13:03.772Z,17.93
2017-11-16T16:16:58.330Z,20.50
2017-11-16T16:19:25.724Z,20.10
2017-11-16T16:21:53.200Z,20.03
2017-11-16T16:24:20.589Z,19.40
2017-11-16T16:26:47.984Z,20.93
2017-11-16T16:29:15.488Z,19.87
2017-11-16T16:31:42.924Z,21.03
2017-11-16T16:34:10.316Z,20.17
2017-11-16T16:36:37.711Z,18.97
2017-11-16T16:39:05.115Z,20.60
2017-11-16T16:41:32.511Z,20.90
2017-11-16T16:43:59.900Z,20.90
2017-11-16T16:46:27.306Z,19.50
2017-11-16T16:48:54.716Z,19.00
2017-11-16T16:51:22.108Z,19.07
2017-11-16T16:53:49.509Z,18.23
2017-11-16T16:56:16.901Z,18.40
2017-11-16T16:58:44.289Z,20.47
2017-11-16T17:01:11.692Z,19.30
2017-11-16T17:03:39.084Z,20.20
2017-11-16T17:06:06.479Z,20.27
2017-11-16T17:08:33.864Z,22.80
2017-11-16T17:11:01.264Z,21.40
2017-11-16T17:13:28.693Z,19.70
2017-11-16T17:15:56.068Z,19.77
2017-11-16T17:18:23.468Z,20.23
2017-11-16T17:20:50.877Z,19.60
2017-11-16T17:23:18.267Z,19.87
2017-11-16T17:25:45.661Z,26.90
2017-11-16T17:28:13.057Z,21.70
2017-11-16T17:30:40.461Z,23.10
2017-11-16T17:33:07.856Z,20.80
2017-11-16T17:35:35.239Z,19.77
2017-11-16T17:38:02.640Z,20.03
2017-11-16T17:40:30.037Z,21.37
2017-11-16T17:42:57.423Z,19.73
2017-11-16T17:45:24.818Z,20.93
2017-11-16T17:47:52.222Z,20.63
2017-11-16T17:50:19.615Z,19.50
2017-11-16T17:52:47.016Z,20.37
2017-11-16T17:55:14.408Z,21.37
2017-11-16T17:57:41.808Z,21.13
2017-11-16T18:00:09.203Z,19.30
2017-11-16T18:02:36.613Z,19.00
2017-11-16T18:05:04.016Z,19.70
2017-11-16T18:07:31.412Z,19.30
2017-11-16T18:09:58.803Z,19.60
2017-11-16T18:12:26.199Z,20.10
2017-11-16T18:14:53.599Z,18.83
2017-11-16T18:17:20.996Z,18.73
2017-11-16T18:19:48.388Z,21.07
2017-11-16T18:22:15.781Z,18.33
2017-11-16T18:24:43.177Z,17.97
2017-11-16T18:27:10.583Z,19.60
2017-11-16T18:29:37.992Z,20.23
2017-11-16T18:32:05.385Z,21.40
2017-11-16T18:34:32.816Z,21.97
2017-11-16T18:37:00.209Z,19.33
2017-11-16T18:39:27.653Z,21.43
2017-11-16T18:41:55.105Z,20.53
2017-11-16T18:44:22.517Z,20.77
2017-11-16T18:46:49.917Z,21.47
2017-11-16T18:49:17.315Z,20.30
2017-11-16T18:51:44.707Z,21.83
2017-11-16T18:54:12.110Z,19.40
2017-11-16T18:56:39.498Z,21.57
2017-11-16T18:59:06.902Z,21.30
2017-11-16T19:01:34.296Z,20.37
2017-11-16T19:04:01.698Z,20.40
2017-11-16T19:06:29.084Z,20.60
2017-11-16T19:08:56.486Z,22.57
2017-11-16T19:11:23.880Z,21.17
2017-11-16T19:13:51.285Z,21.13
2017-11-16T19:16:18.787Z,21.70
2017-11-16T19:18:46.183Z,22.23
2017-11-16T19:21:13.581Z,22.67
2017-11-16T19:23:40.981Z,21.03
2017-11-16T19:26:08.716Z,21.10
2017-11-16T19:28:36.127Z,21.07
2017-11-16T19:31:03.517Z,22.70
2017-11-16T19:33:30.935Z,23.60
2017-11-16T19:35:58.340Z,21.70
2017-11-16T19:38:25.742Z,24.50
2017-11-16T19:40:53.129Z,24.33
2017-11-16T19:43:20.535Z,23.60
2017-11-16T19:45:47.958Z,24.30
2017-11-16T19:48:16.119Z,24.37
2017-11-16T19:50:43.804Z,26.70
2017-11-16T19:53:11.187Z,28.10
2017-11-16T19:55:38.705Z,26.67
2017-11-16T19:58:06.196Z,27.80
2017-11-16T20:00:33.620Z,25.30
2017-11-16T20:03:01.009Z,27.80
2017-11-16T20:05:28.418Z,29.40
2017-11-16T20:07:55.809Z,28.60
2017-11-16T20:10:23.213Z,30.00
2017-11-16T20:12:50.612Z,27.83
2017-11-16T20:15:18.009Z,27.80
2017-11-16T20:17:45.405Z,29.73
2017-11-16T20:20:12.820Z,28.83
2017-11-16T20:22:40.234Z,29.40
2017-11-16T20:25:07.642Z,31.43
2017-11-16T20:27:35.040Z,31.20
2017-11-16T20:30:02.457Z,30.27
2017-11-16T20:32:29.964Z,33.90
2017-11-16T20:34:57.367Z,31.00
2017-11-16T20:37:30.449Z,32.77
2017-11-16T20:40:02.821Z,30.60
2017-11-16T20:45:51.112Z,32.20
2017-11-16T20:48:24.278Z,32.67
2017-11-16T20:54:14.378Z,34.10
2017-11-16T20:56:41.775Z,32.23
2017-11-16T20:59:09.172Z,33.03
2017-11-16T21:01:36.693Z,33.30
2017-11-16T21:04:04.117Z,32.77
2017-11-16T21:06:31.547Z,34.33
2017-11-16T21:08:58.939Z,32.77
2017-11-16T21:11:26.381Z,32.77
2017-11-16T21:13:53.836Z,33.80
2017-11-16T21:16:21.316Z,34.40
2017-11-16T21:18:48.702Z,33.07
2017-11-16T21:21:16.105Z,34.23
2017-11-16T21:23:43.499Z,34.30
2017-11-16T21:26:10.898Z,33.50
2017-11-16T21:28:38.301Z,36.30
2017-11-16T21:31:05.723Z,35.73
2017-11-16T21:33:33.123Z,38.33
2017-11-16T21:36:00.538Z,37.07
2017-11-16T21:38:27.939Z,39.23
2017-11-16T21:40:55.329Z,37.50
2017-11-16T21:43:22.741Z,38.70
2017-11-16T21:45:50.128Z,38.40
2017-11-16T21:48:17.537Z,38.17
2017-11-16T21:50:44.947Z,40.77
2017-11-16T21:53:12.433Z,38.10
2017-11-16T21:55:39.824Z,38.70
2017-11-16T21:58:07.374Z,38.40
2017-11-16T22:00:34.795Z,38.77
2017-11-16T22:03:02.252Z,39.40
2017-11-16T22:05:29.651Z,39.33
2017-11-16T22:07:57.143Z,38.03
2017-11-16T22:10:24.544Z,39.10
2017-11-16T22:12:51.970Z,40.20
2017-11-16T22:15:19.372Z,41.17
2017-11-16T22:17:46.771Z,38.97
2017-11-16T22:20:14.165Z,40.43
2017-11-16T22:22:41.610Z,41.40
2017-11-16T22:25:09.003Z,40.47
2017-11-16T22:27:36.507Z,38.27
2017-11-16T22:30:03.911Z,38.43
2017-11-16T22:32:31.320Z,42.13
2017-11-16T22:34:58.780Z,40.33
2017-11-16T22:37:26.236Z,42.80
2017-11-16T22:39:53.640Z,42.20
2017-11-16T22:42:21.040Z,43.63
2017-11-16T22:44:48.499Z,44.40
2017-11-16T22:47:15.948Z,39.70
2017-11-16T22:49:43.416Z,41.27
2017-11-16T22:52:10.829Z,43.67
2017-11-16T22:54:38.337Z,44.73
2017-11-16T22:57:05.723Z,41.87
2017-11-16T22:59:33.127Z,45.37
2017-11-16T23:02:00.538Z,44.40
2017-11-16T23:04:27.964Z,46.13
2017-11-16T23:06:55.348Z,47.53
2017-11-16T23:09:22.743Z,44.33
2017-11-16T23:11:50.153Z,41.50
2017-11-16T23:14:17.543Z,39.90
2017-11-16T23:16:44.940Z,36.40
2017-11-16T23:19:12.344Z,39.27
2017-11-16T23:21:39.836Z,38.27
2017-11-16T23:24:07.223Z,39.50
2017-11-16T23:26:34.632Z,40.30
2017-11-16T23:29:02.042Z,39.57
2017-11-16T23:31:29.439Z,39.60
2017-11-16T23:33:56.832Z,36.97
2017-11-16T23:36:24.244Z,39.37
2017-11-16T23:38:51.727Z,39.50
2017-11-16T23:41:19.131Z,39.73
2017-11-16T23:43:46.584Z,39.83
2017-11-16T23:46:14.077Z,37.23
2017-11-16T23:48:41.508Z,37.67
2017-11-16T23:51:08.916Z,31.03
2017-11-16T23:53:36.415Z,29.37
2017-11-16T23:56:03.807Z,19.30
2017-11-16T23:58:31.223Z,15.80
